Friday, January 19, 2018, 10:33 PM EST
Back to Local

KLWM, Lawrence Municipal Airport

Location: North Andover, MA, United States Lat: 42.717
Local Time: 10:33 PM EST ( 3:33 GMT) Lon: -71.133
Time Zone: US/Eastern Elev: 147 ft

Show me the last for .
Show Coded

Time T Td Feel RH Dir Speed Gust Alt SLP Vis Weather Sky Remarks
2018-01-19 21:54 31 20 24 63 220° 7 - 29.92 29.92 10 CLR None
2018-01-19 20:54 33 22 26 63 210° 8 - 29.93 29.93 10 OVC039 None
2018-01-19 19:54 34 22 28 60 230° 7 - 29.94 29.94 10 OVC038 None
2018-01-19 18:54 34 21 29 58 200° 6 - 29.92 29.93 10 OVC038 6-hr Min Temp (7pm): 33.1°F
6-hr Max Temp (7pm): 35.1°F
2018-01-19 17:54 34 21 31 58 200° 3 - 29.93 29.93 10 OVC040 None
2018-01-19 16:54 34 20 28 55 260° 7 - 29.95 29.95 10 OVC039 None
2018-01-19 15:54 34 21 29 58 290° 6 - 29.94 29.94 10 OVC036 None
2018-01-19 14:54 34 21 27 58 250° 8 - 29.93 29.93 10 OVC033 None
2018-01-19 13:54 34 20 30 55 260° 5 - 29.92 29.92 10 OVC035 None
2018-01-19 12:54 33 20 28 58 240° 6 - 29.93 29.93 10 OVC035 6-hr Min Temp (1pm): 24.1°F
6-hr Max Temp (1pm): 33.1°F
2018-01-19 11:54 33 20 26 58 220° 8 - 29.95 29.95 10 CLR None
2018-01-19 10:54 31 19 23 60 260° 9 - 29.97 29.98 10 SCT039 None
2018-01-19 09:54 28 19 22 68 230° 6 - 29.99 29.99 10 BKN040 BKN050 None
2018-01-19 08:54 27 18 22 68 230° 5 - 29.99 29.99 10 FEW045 OVC060 None
2018-01-19 07:54 25 17 19 71 200° 5 - 29.97 29.97 10 OVC048 None
2018-01-19 06:54 23 16 15 74 240° 7 - 29.97 29.98 10 SCT050 SCT095 Pressure rising rapidly
6-hr Min Temp (7am): 19.0°F
6-hr Max Temp (7am): 24.1°F
2018-01-19 05:54 23 16 16 74 200° 6 - 29.96 29.96 10 FEW120 None
2018-01-19 04:54 22 15 14 74 230° 6 - 29.95 29.95 10 CLR None
2018-01-19 03:54 22 15 16 74 210° 5 - 29.93 29.93 10 CLR None
2018-01-19 02:54 21 14 13 73 210° 6 - 29.94 29.94 10 CLR None
2018-01-19 01:54 21 14 15 73 210° 5 - 29.95 29.95 10 CLR None
2018-01-19 00:54 22 15 16 74 190° 5 - 29.93 29.93 10 CLR 6-hr Min Temp (1am): 18.0°F
6-hr Max Temp (1am): 27.0°F
2018-01-18 23:54 20 14 15 77 220° 3 - 29.95 29.95 10 CLR 24-hr Min Temp (12am): 18.0°F
24-hr Max Temp (12am): 32.0°F
2018-01-18 22:54 21 15 - 77 - Calm - 29.96 29.96 10 CLR None

Support USWX by starting your Amazon purchase here.